Time;durP1;ratioP1;P1;durP2;ratioP2;P2;SDS_P1;SDS_P2;PMS_P1;PMS_P2;Temp;Humidity;BMP_temperature;BMP_pressure;BME280_temperature;BME280_humidity;BME280_pressure;Samples;Min_cycle;Max_cycle;Signal;HPM_P1;HPM_P2
2024/03/03 00:00:41;;;;;;;27.25;14.93;;;;;;;;;;5098773;27;20118;-72
2024/03/03 00:03:06;;;;;;;21.75;13.10;;;;;;;;;;5134459;27;20023;-73
2024/03/03 00:05:32;;;;;;;23.13;13.10;;;;;;;;;;5134801;27;20019;-73
2024/03/03 00:07:58;;;;;;;26.45;14.02;;;;;;;;;;5116111;27;20114;-73
2024/03/03 00:10:23;;;;;;;26.45;13.68;;;;;;;;;;5115516;27;20372;-72
2024/03/03 00:12:49;;;;;;;28.30;13.35;;;;;;;;;;5133790;27;20031;-71
2024/03/03 00:15:14;;;;;;;26.95;13.50;;;;;;;;;;5134058;27;20023;-71
2024/03/03 00:17:41;;;;;;;23.52;12.32;;;;;;;;;;5115341;27;20031;-71
2024/03/03 00:20:07;;;;;;;27.08;13.27;;;;;;;;;;5115781;27;20030;-72
2024/03/03 00:22:34;;;;;;;23.60;13.50;;;;;;;;;;5134833;27;20642;-72
2024/03/03 00:24:59;;;;;;;21.90;12.18;;;;;;;;;;5136418;27;20060;-71
2024/03/03 00:27:26;;;;;;;21.92;11.93;;;;;;;;;;5116588;27;20359;-72
2024/03/03 00:29:52;;;;;;;24.92;13.23;;;;;;;;;;5116076;27;20027;-73
2024/03/03 00:32:19;;;;;;;22.45;12.38;;;;;;;;;;5134814;27;20030;-73
2024/03/03 00:34:45;;;;;;;26.67;13.27;;;;;;;;;;5134580;27;20019;-72
2024/03/03 00:37:12;;;;;;;24.95;13.25;;;;;;;;;;5116622;27;20030;-71
2024/03/03 00:39:37;;;;;;;25.92;12.82;;;;;;;;;;5118618;27;20059;-71
2024/03/03 00:42:04;;;;;;;20.45;13.27;;;;;;;;;;5136296;27;20027;-72
2024/03/03 00:44:29;;;;;;;23.38;11.93;;;;;;;;;;5120609;28;20456;-73
2024/03/03 00:46:55;;;;;;;26.27;13.70;;;;;;;;;;5121889;28;20118;-71
2024/03/03 00:49:20;;;;;;;24.38;12.23;;;;;;;;;;5098511;28;20476;-71
2024/03/03 00:51:47;;;;;;;21.63;12.43;;;;;;;;;;5094900;28;20020;-74
2024/03/03 00:54:13;;;;;;;22.95;12.43;;;;;;;;;;5102284;27;20027;-72
2024/03/03 00:56:41;;;;;;;19.95;11.93;;;;;;;;;;5116290;27;20513;-71
2024/03/03 00:59:07;;;;;;;19.55;11.57;;;;;;;;;;5098395;27;20110;-74
2024/03/03 01:01:32;;;;;;;23.15;12.43;;;;;;;;;;5114407;27;20106;-72
2024/03/03 01:03:58;;;;;;;23.85;11.63;;;;;;;;;;5132267;27;20054;-72
2024/03/03 01:06:23;;;;;;;24.70;12.88;;;;;;;;;;5114301;27;20027;-71
2024/03/03 01:08:49;;;;;;;21.73;12.48;;;;;;;;;;5114369;27;20026;-71
2024/03/03 01:11:15;;;;;;;25.23;12.38;;;;;;;;;;5132712;27;20019;-75
2024/03/03 01:13:40;;;;;;;27.17;12.85;;;;;;;;;;5114229;27;20023;-71
2024/03/03 01:16:06;;;;;;;26.20;13.50;;;;;;;;;;5132837;27;20196;-71
2024/03/03 01:18:32;;;;;;;22.88;13.00;;;;;;;;;;5132491;27;20023;-72
2024/03/03 01:20:58;;;;;;;26.17;13.07;;;;;;;;;;5114246;27;20031;-72
2024/03/03 01:23:23;;;;;;;19.00;12.05;;;;;;;;;;5132542;27;20015;-73
2024/03/03 01:25:49;;;;;;;23.08;12.23;;;;;;;;;;5132535;27;20027;-72
2024/03/03 01:28:15;;;;;;;25.90;13.23;;;;;;;;;;5113765;27;20114;-71
2024/03/03 01:30:41;;;;;;;22.85;13.73;;;;;;;;;;5113685;27;20113;-73
2024/03/03 01:33:06;;;;;;;26.90;13.52;;;;;;;;;;5113960;27;20562;-72
2024/03/03 01:35:32;;;;;;;23.17;13.00;;;;;;;;;;5113818;27;20434;-73
2024/03/03 01:37:57;;;;;;;22.92;13.68;;;;;;;;;;5114022;27;20083;-71
2024/03/03 01:40:23;;;;;;;25.30;12.50;;;;;;;;;;5114464;27;20027;-72
2024/03/03 01:42:55;;;;;;;23.05;12.48;;;;;;;;;;5102015;28;20118;-71
2024/03/03 01:45:24;;;;;;;21.95;12.50;;;;;;;;;;5111387;28;20031;-72
2024/03/03 01:47:56;;;;;;;25.45;12.50;;;;;;;;;;5093151;28;20032;-72
2024/03/03 01:50:22;;;;;;;26.20;12.98;;;;;;;;;;5111371;28;20501;-71
2024/03/03 01:52:50;;;;;;;25.23;12.48;;;;;;;;;;5111298;28;20032;-71
2024/03/03 01:55:20;;;;;;;23.33;12.13;;;;;;;;;;5109454;27;20080;-71
2024/03/03 01:57:46;;;;;;;18.65;12.52;;;;;;;;;;5113602;27;20126;-73
2024/03/03 02:00:13;;;;;;;23.83;12.48;;;;;;;;;;5133236;27;20386;-72
2024/03/03 02:02:40;;;;;;;21.75;12.27;;;;;;;;;;5113663;27;20072;-73
2024/03/03 02:05:07;;;;;;;23.25;12.88;;;;;;;;;;5112883;27;20550;-71
2024/03/03 02:07:33;;;;;;;25.95;13.65;;;;;;;;;;5131594;27;20042;-71
2024/03/03 02:09:59;;;;;;;25.25;13.18;;;;;;;;;;5112998;27;20031;-72
2024/03/03 02:12:25;;;;;;;20.73;12.70;;;;;;;;;;5113099;27;20091;-71
2024/03/03 02:14:55;;;;;;;22.67;12.45;;;;;;;;;;5112779;27;20394;-72
2024/03/03 02:17:21;;;;;;;24.27;12.63;;;;;;;;;;5131606;27;20031;-72
2024/03/03 02:19:47;;;;;;;25.33;13.00;;;;;;;;;;5131262;27;20034;-72
2024/03/03 02:22:13;;;;;;;26.20;12.20;;;;;;;;;;5112888;27;20023;-70
2024/03/03 02:24:38;;;;;;;21.75;12.10;;;;;;;;;;5131590;27;20031;-73
2024/03/03 02:27:04;;;;;;;24.17;12.75;;;;;;;;;;5113218;27;20027;-71
2024/03/03 02:29:30;;;;;;;28.83;12.80;;;;;;;;;;5112813;27;20059;-71
2024/03/03 02:31:56;;;;;;;23.75;12.93;;;;;;;;;;5112401;27;20027;-71
2024/03/03 02:34:26;;;;;;;23.02;11.82;;;;;;;;;;5112670;27;20371;-71
2024/03/03 02:36:51;;;;;;;24.63;11.82;;;;;;;;;;5131501;27;20023;-71
2024/03/03 02:39:17;;;;;;;22.27;11.45;;;;;;;;;;5113283;27;20497;-73
2024/03/03 02:41:42;;;;;;;22.23;11.98;;;;;;;;;;5110600;27;20424;-73
2024/03/03 02:44:08;;;;;;;22.92;12.80;;;;;;;;;;5092507;28;20032;-72
2024/03/03 02:46:33;;;;;;;22.13;11.65;;;;;;;;;;5092215;28;20034;-72
2024/03/03 02:48:59;;;;;;;23.35;11.88;;;;;;;;;;5092416;28;20076;-72
2024/03/03 02:51:26;;;;;;;27.33;12.75;;;;;;;;;;5110569;28;20531;-73
2024/03/03 02:53:53;;;;;;;27.95;13.38;;;;;;;;;;5096792;27;20034;-72
2024/03/03 02:56:18;;;;;;;24.50;12.50;;;;;;;;;;5112062;27;20027;-72
2024/03/03 02:58:44;;;;;;;26.98;12.38;;;;;;;;;;5111948;28;20041;-72
2024/03/03 03:01:09;;;;;;;28.55;13.63;;;;;;;;;;5111965;27;20031;-71
2024/03/03 03:03:35;;;;;;;26.98;14.55;;;;;;;;;;5108376;28;20108;-72
2024/03/03 03:06:01;;;;;;;24.17;11.93;;;;;;;;;;5110229;28;20026;-71
2024/03/03 03:08:26;;;;;;;23.58;13.48;;;;;;;;;;5110658;28;20452;-71
2024/03/03 03:10:54;;;;;;;25.23;12.77;;;;;;;;;;5110740;28;20491;-71
2024/03/03 03:13:20;;;;;;;22.00;12.18;;;;;;;;;;5111016;28;20030;-71
2024/03/03 03:15:45;;;;;;;22.95;12.15;;;;;;;;;;5116186;28;20053;-72
2024/03/03 03:18:11;;;;;;;23.45;11.05;;;;;;;;;;5117629;28;20028;-73
2024/03/03 03:20:37;;;;;;;29.42;13.32;;;;;;;;;;5110617;28;20058;-71
2024/03/03 03:23:02;;;;;;;22.92;11.60;;;;;;;;;;5110303;28;20028;-71
2024/03/03 03:25:28;;;;;;;27.17;12.20;;;;;;;;;;5108312;28;20046;-72
2024/03/03 03:27:53;;;;;;;25.73;12.25;;;;;;;;;;5108271;28;20386;-71
2024/03/03 03:30:19;;;;;;;24.70;12.88;;;;;;;;;;5108583;28;20168;-71
2024/03/03 03:32:45;;;;;;;29.55;12.93;;;;;;;;;;5110017;28;20091;-71
2024/03/03 03:35:10;;;;;;;26.77;12.20;;;;;;;;;;5108083;28;20051;-73
2024/03/03 03:37:37;;;;;;;24.65;12.18;;;;;;;;;;5108549;28;20027;-71
2024/03/03 03:40:09;;;;;;;22.92;12.13;;;;;;;;;;5110121;28;20102;-71
2024/03/03 03:42:36;;;;;;;25.27;12.35;;;;;;;;;;5100305;28;20027;-72
2024/03/03 03:45:03;;;;;;;22.20;12.57;;;;;;;;;;5088373;28;20125;-71
2024/03/03 03:47:30;;;;;;;24.73;12.00;;;;;;;;;;5087922;28;20379;-72
2024/03/03 03:49:56;;;;;;;26.52;13.63;;;;;;;;;;5087986;28;20028;-71
2024/03/03 03:52:22;;;;;;;28.92;13.55;;;;;;;;;;5088000;28;20085;-73
2024/03/03 03:54:47;;;;;;;27.92;14.43;;;;;;;;;;5099980;28;20035;-73
2024/03/03 03:57:13;;;;;;;23.50;12.82;;;;;;;;;;5109970;28;20032;-72
2024/03/03 03:59:38;;;;;;;27.23;12.75;;;;;;;;;;5109572;28;20031;-72
2024/03/03 04:02:05;;;;;;;24.50;12.20;;;;;;;;;;5107950;28;20119;-72
2024/03/03 04:04:37;;;;;;;21.00;11.38;;;;;;;;;;5108054;28;20134;-71
2024/03/03 04:07:04;;;;;;;31.13;14.95;;;;;;;;;;5108782;28;20548;-70
2024/03/03 04:09:33;;;;;;;23.77;12.52;;;;;;;;;;5108612;28;20027;-73
2024/03/03 04:11:58;;;;;;;27.75;13.05;;;;;;;;;;5108517;28;20042;-71
2024/03/03 04:14:25;;;;;;;24.00;12.98;;;;;;;;;;5109092;28;20351;-72
2024/03/03 04:16:50;;;;;;;24.63;12.15;;;;;;;;;;5108122;28;20038;-72
2024/03/03 04:19:16;;;;;;;27.27;13.55;;;;;;;;;;5109904;28;20035;-72
2024/03/03 04:21:42;;;;;;;25.58;12.60;;;;;;;;;;5108609;28;20028;-71
2024/03/03 04:24:08;;;;;;;29.92;13.10;;;;;;;;;;5092775;28;20063;-71
2024/03/03 04:26:33;;;;;;;27.17;13.20;;;;;;;;;;5111914;28;20047;-72
2024/03/03 04:28:59;;;;;;;25.98;12.98;;;;;;;;;;5094546;28;20036;-70
2024/03/03 04:31:25;;;;;;;28.05;13.80;;;;;;;;;;5112491;28;20542;-71
2024/03/03 04:33:52;;;;;;;27.75;12.93;;;;;;;;;;5113215;28;20035;-72
2024/03/03 04:36:18;;;;;;;30.60;13.75;;;;;;;;;;5111666;28;20024;-72
2024/03/03 04:38:43;;;;;;;22.73;11.98;;;;;;;;;;5111553;28;20031;-73
2024/03/03 04:41:17;;;;;;;26.75;13.80;;;;;;;;;;5111475;28;20198;-72
2024/03/03 04:43:43;;;;;;;30.40;15.02;;;;;;;;;;5111339;28;20167;-72
2024/03/03 04:46:09;;;;;;;31.58;13.63;;;;;;;;;;5111347;28;20032;-71
2024/03/03 04:48:35;;;;;;;28.05;13.98;;;;;;;;;;5112829;28;20045;-72
2024/03/03 04:51:01;;;;;;;29.30;14.75;;;;;;;;;;5111304;28;20035;-70
2024/03/03 04:53:27;;;;;;;27.42;13.88;;;;;;;;;;5110483;28;20463;-71
2024/03/03 04:55:53;;;;;;;28.05;13.63;;;;;;;;;;5090519;28;20024;-72
2024/03/03 04:58:18;;;;;;;27.50;13.57;;;;;;;;;;5092091;28;20047;-73
2024/03/03 05:00:44;;;;;;;29.60;13.80;;;;;;;;;;5091887;28;20027;-71
2024/03/03 05:03:11;;;;;;;25.10;13.10;;;;;;;;;;5091725;28;20063;-72
2024/03/03 05:05:37;;;;;;;29.17;12.98;;;;;;;;;;5112633;28;20035;-71
2024/03/03 05:08:03;;;;;;;25.88;12.50;;;;;;;;;;5094064;28;20502;-72
2024/03/03 05:10:29;;;;;;;30.33;14.55;;;;;;;;;;5060420;28;20031;-72
2024/03/03 05:12:54;;;;;;;32.83;14.38;;;;;;;;;;5111929;28;20471;-72
2024/03/03 05:15:20;;;;;;;25.67;13.77;;;;;;;;;;5093711;28;20027;-71
2024/03/03 05:17:45;;;;;;;29.55;14.02;;;;;;;;;;5093798;28;20053;-71
2024/03/03 05:20:11;;;;;;;24.05;12.27;;;;;;;;;;5093710;28;20038;-72
2024/03/03 05:22:37;;;;;;;26.92;12.32;;;;;;;;;;5112159;28;20027;-72
2024/03/03 05:25:04;;;;;;;29.63;13.10;;;;;;;;;;5093176;28;20034;-70
2024/03/03 05:27:33;;;;;;;27.35;13.30;;;;;;;;;;5111222;28;20574;-73
2024/03/03 05:30:03;;;;;;;29.73;14.02;;;;;;;;;;5093348;28;20118;-72
2024/03/03 05:32:31;;;;;;;27.08;13.13;;;;;;;;;;5093816;28;20031;-72
2024/03/03 05:34:56;;;;;;;29.10;14.23;;;;;;;;;;5092817;28;20051;-71
2024/03/03 05:37:23;;;;;;;29.52;12.98;;;;;;;;;;5093270;28;20070;-72
2024/03/03 05:39:49;;;;;;;28.65;13.32;;;;;;;;;;5111875;28;20035;-72
2024/03/03 05:42:14;;;;;;;31.92;13.93;;;;;;;;;;5111480;28;20019;-70
2024/03/03 05:44:40;;;;;;;31.52;13.90;;;;;;;;;;5093175;28;20027;-72
2024/03/03 05:47:06;;;;;;;28.92;14.20;;;;;;;;;;5111380;28;20042;-71
2024/03/03 05:49:33;;;;;;;26.08;14.15;;;;;;;;;;5111632;28;20530;-71
2024/03/03 05:52:00;;;;;;;29.13;14.25;;;;;;;;;;5093186;28;20176;-71
2024/03/03 05:54:26;;;;;;;27.35;13.77;;;;;;;;;;5111616;28;20034;-73
2024/03/03 05:56:51;;;;;;;31.10;15.20;;;;;;;;;;5092683;28;20027;-71
2024/03/03 05:59:17;;;;;;;27.70;13.23;;;;;;;;;;5093093;28;20077;-70
2024/03/03 06:01:48;;;;;;;29.70;14.35;;;;;;;;;;5111227;28;20102;-71
2024/03/03 06:04:17;;;;;;;29.98;12.80;;;;;;;;;;5089890;28;20055;-72
2024/03/03 06:06:43;;;;;;;28.92;13.15;;;;;;;;;;5091449;28;20105;-72
2024/03/03 06:09:10;;;;;;;31.20;14.98;;;;;;;;;;5091646;28;20066;-70
2024/03/03 06:11:37;;;;;;;28.80;14.20;;;;;;;;;;5089358;28;20024;-72
2024/03/03 06:14:03;;;;;;;28.50;13.15;;;;;;;;;;5089084;28;20471;-72
2024/03/03 06:16:29;;;;;;;28.85;13.55;;;;;;;;;;5090666;28;20020;-72
2024/03/03 06:18:55;;;;;;;28.05;14.05;;;;;;;;;;5088968;28;20111;-72
2024/03/03 06:21:21;;;;;;;32.05;13.43;;;;;;;;;;5090198;28;20032;-71
2024/03/03 06:23:47;;;;;;;31.38;13.90;;;;;;;;;;5088977;28;20035;-72
2024/03/03 06:26:16;;;;;;;32.40;13.75;;;;;;;;;;5088899;28;20020;-72
2024/03/03 06:28:44;;;;;;;31.70;14.15;;;;;;;;;;5090331;28;20024;-71
2024/03/03 06:31:11;;;;;;;29.75;14.40;;;;;;;;;;5089161;28;20032;-71
2024/03/03 06:33:37;;;;;;;31.45;14.02;;;;;;;;;;5088998;28;20023;-73
2024/03/03 06:36:02;;;;;;;33.08;14.73;;;;;;;;;;5088754;28;20034;-72
2024/03/03 06:38:28;;;;;;;28.67;14.18;;;;;;;;;;5088993;28;20115;-71
2024/03/03 06:40:54;;;;;;;34.13;14.07;;;;;;;;;;5088580;28;20028;-71
2024/03/03 06:43:20;;;;;;;31.10;13.65;;;;;;;;;;5090243;28;20542;-72
2024/03/03 06:45:46;;;;;;;29.95;13.95;;;;;;;;;;5071439;28;20036;-71
2024/03/03 06:48:12;;;;;;;28.80;12.30;;;;;;;;;;5087998;28;20053;-73
2024/03/03 06:50:37;;;;;;;34.08;14.35;;;;;;;;;;5090242;28;20613;-71
2024/03/03 06:53:04;;;;;;;30.17;13.45;;;;;;;;;;5088419;28;20066;-72
2024/03/03 06:55:30;;;;;;;26.92;12.32;;;;;;;;;;5088888;28;20059;-72
2024/03/03 06:57:55;;;;;;;28.80;13.60;;;;;;;;;;5089765;28;20063;-72
2024/03/03 07:00:21;;;;;;;27.98;13.40;;;;;;;;;;5088740;28;20024;-72
2024/03/03 07:05:31;;;;;;;34.45;17.52;;;;;;;;;;5089893;28;20515;-73
2024/03/03 07:07:58;;;;;;;27.50;12.85;;;;;;;;;;5089842;28;20067;-74
2024/03/03 07:10:23;;;;;;;27.67;13.55;;;;;;;;;;5090145;28;20408;-71
2024/03/03 07:12:49;;;;;;;25.73;12.63;;;;;;;;;;5088458;28;20066;-76
2024/03/03 07:15:16;;;;;;;26.85;12.82;;;;;;;;;;5088626;28;20032;-72
2024/03/03 07:17:44;;;;;;;33.58;14.93;;;;;;;;;;5088328;28;20118;-70
2024/03/03 07:20:10;;;;;;;26.98;13.00;;;;;;;;;;5088144;28;20480;-72
2024/03/03 07:22:36;;;;;;;29.65;12.30;;;;;;;;;;5088121;28;20055;-73
2024/03/03 07:25:03;;;;;;;29.65;13.90;;;;;;;;;;5090270;28;20039;-72
2024/03/03 07:27:29;;;;;;;23.67;13.07;;;;;;;;;;5092605;28;20042;-71
2024/03/03 07:29:55;;;;;;;23.80;11.35;;;;;;;;;;5092190;28;20024;-73
2024/03/03 07:32:21;;;;;;;29.20;13.40;;;;;;;;;;5071034;28;20027;-71
2024/03/03 07:34:50;;;;;;;28.42;12.82;;;;;;;;;;5087471;28;20680;-70
2024/03/03 07:37:16;;;;;;;26.25;12.98;;;;;;;;;;5088891;28;20036;-71
2024/03/03 07:39:42;;;;;;;30.33;12.55;;;;;;;;;;5089252;28;20051;-72
2024/03/03 07:42:11;;;;;;;27.88;13.07;;;;;;;;;;5089442;28;20028;-71
2024/03/03 07:44:36;;;;;;;31.67;13.60;;;;;;;;;;5087956;28;20373;-71
2024/03/03 07:47:05;;;;;;;30.15;13.18;;;;;;;;;;5088990;28;20395;-71
2024/03/03 07:49:31;;;;;;;26.40;13.18;;;;;;;;;;5087773;28;20028;-71
2024/03/03 07:51:56;;;;;;;30.55;14.18;;;;;;;;;;5089051;28;20058;-71
2024/03/03 07:54:22;;;;;;;31.73;13.15;;;;;;;;;;5087581;28;20059;-71
2024/03/03 07:56:48;;;;;;;27.17;13.35;;;;;;;;;;5087489;28;20050;-70
2024/03/03 07:59:14;;;;;;;26.17;13.57;;;;;;;;;;5092062;28;20028;-72
2024/03/03 08:01:39;;;;;;;25.60;14.00;;;;;;;;;;5093094;28;20055;-71
2024/03/03 08:04:06;;;;;;;23.70;11.50;;;;;;;;;;5074301;28;20071;-73
2024/03/03 08:06:32;;;;;;;25.08;12.00;;;;;;;;;;5092973;28;20032;-72
2024/03/03 08:09:03;;;;;;;26.70;12.65;;;;;;;;;;5092740;28;20197;-72
2024/03/03 08:11:29;;;;;;;24.60;12.45;;;;;;;;;;5092810;28;20032;-72
2024/03/03 08:13:54;;;;;;;26.65;12.13;;;;;;;;;;5091242;28;20084;-71
2024/03/03 08:16:21;;;;;;;22.20;11.77;;;;;;;;;;5091781;28;20077;-70
2024/03/03 08:18:47;;;;;;;22.15;11.32;;;;;;;;;;5092939;28;20106;-71
2024/03/03 08:21:12;;;;;;;26.52;12.55;;;;;;;;;;5102808;28;20121;-73
2024/03/03 08:23:39;;;;;;;25.17;10.93;;;;;;;;;;5105578;28;20024;-72
2024/03/03 08:26:05;;;;;;;23.65;11.55;;;;;;;;;;5105216;28;20040;-70
2024/03/03 08:28:36;;;;;;;22.38;11.38;;;;;;;;;;5099954;28;20031;-72
2024/03/03 08:31:02;;;;;;;22.15;10.32;;;;;;;;;;5099356;28;20507;-74
2024/03/03 08:33:28;;;;;;;20.10;10.27;;;;;;;;;;5104224;28;20043;-72
2024/03/03 08:35:53;;;;;;;22.77;10.73;;;;;;;;;;5099234;28;20479;-72
2024/03/03 08:38:18;;;;;;;22.63;10.65;;;;;;;;;;5096059;28;20391;-72
2024/03/03 08:40:45;;;;;;;28.52;12.63;;;;;;;;;;5092576;28;20028;-71
2024/03/03 08:43:11;;;;;;;21.50;11.32;;;;;;;;;;5092409;28;20032;-70
2024/03/03 08:45:36;;;;;;;23.67;11.48;;;;;;;;;;5092501;28;20020;-71
2024/03/03 08:48:02;;;;;;;22.83;10.07;;;;;;;;;;5090933;28;20015;-71
2024/03/03 08:50:28;;;;;;;20.80;10.70;;;;;;;;;;5074405;28;20024;-72
2024/03/03 08:52:53;;;;;;;23.42;11.43;;;;;;;;;;5091824;28;20020;-72
2024/03/03 08:55:19;;;;;;;23.88;12.27;;;;;;;;;;5109331;28;20030;-71
2024/03/03 08:57:45;;;;;;;23.45;11.02;;;;;;;;;;5111713;28;20032;-71
2024/03/03 09:00:12;;;;;;;20.45;10.10;;;;;;;;;;5112459;28;20444;-70
2024/03/03 09:02:41;;;;;;;27.27;12.57;;;;;;;;;;5116080;28;20027;-72
2024/03/03 09:05:11;;;;;;;22.73;11.63;;;;;;;;;;5113832;28;20395;-71
2024/03/03 09:07:37;;;;;;;23.27;11.20;;;;;;;;;;5113758;28;20032;-71
2024/03/03 09:10:04;;;;;;;18.75;9.85;;;;;;;;;;5112634;28;20023;-71
2024/03/03 09:12:30;;;;;;;20.95;11.60;;;;;;;;;;5112950;28;20126;-71
2024/03/03 09:14:56;;;;;;;20.77;9.98;;;;;;;;;;5111569;28;20015;-71
2024/03/03 09:17:22;;;;;;;20.65;10.07;;;;;;;;;;5111888;28;20024;-71
2024/03/03 09:19:47;;;;;;;18.02;10.20;;;;;;;;;;5112539;28;20418;-71
2024/03/03 09:22:13;;;;;;;20.65;10.00;;;;;;;;;;5111045;28;20046;-72
2024/03/03 09:24:43;;;;;;;22.98;10.85;;;;;;;;;;5110539;28;20127;-71
2024/03/03 09:27:12;;;;;;;19.85;9.40;;;;;;;;;;5110308;28;20573;-72
2024/03/03 09:29:38;;;;;;;20.48;9.48;;;;;;;;;;5110026;28;20028;-71
2024/03/03 09:32:04;;;;;;;21.35;10.07;;;;;;;;;;5109718;28;20054;-71
2024/03/03 09:34:30;;;;;;;22.13;11.45;;;;;;;;;;5110017;28;20483;-72
2024/03/03 09:36:56;;;;;;;21.50;10.90;;;;;;;;;;5111266;28;20027;-72
2024/03/03 09:39:21;;;;;;;24.35;9.95;;;;;;;;;;5111445;28;20502;-71
2024/03/03 09:41:50;;;;;;;21.55;9.63;;;;;;;;;;5109197;28;20479;-72
2024/03/03 09:44:17;;;;;;;19.42;9.45;;;;;;;;;;5089316;28;20028;-71
2024/03/03 09:46:43;;;;;;;18.33;8.63;;;;;;;;;;5089726;28;20020;-74
2024/03/03 09:49:17;;;;;;;19.70;10.45;;;;;;;;;;5089589;28;20024;-72
2024/03/03 09:51:47;;;;;;;17.58;9.05;;;;;;;;;;5091311;28;20027;-70
2024/03/03 09:54:19;;;;;;;19.98;9.50;;;;;;;;;;5090882;28;20032;-70
2024/03/03 09:56:49;;;;;;;17.60;8.25;;;;;;;;;;5089356;28;20138;-72
2024/03/03 09:59:15;;;;;;;19.60;10.27;;;;;;;;;;5090756;28;20034;-71
2024/03/03 10:01:52;;;;;;;18.17;8.70;;;;;;;;;;5090771;28;20035;-73
2024/03/03 10:04:18;;;;;;;17.88;9.63;;;;;;;;;;5100109;28;20047;-71
2024/03/03 10:06:45;;;;;;;15.35;8.93;;;;;;;;;;5111040;28;20100;-72
2024/03/03 10:09:15;;;;;;;18.90;9.38;;;;;;;;;;5092138;28;20419;-72
2024/03/03 10:11:41;;;;;;;17.67;9.75;;;;;;;;;;5111259;28;20023;-73
2024/03/03 10:14:11;;;;;;;18.50;8.88;;;;;;;;;;5110557;28;20019;-71
2024/03/03 10:16:37;;;;;;;18.90;9.27;;;;;;;;;;5110457;28;20068;-73
2024/03/03 10:19:05;;;;;;;20.45;9.45;;;;;;;;;;5110276;28;20084;-72
2024/03/03 10:21:37;;;;;;;16.40;9.20;;;;;;;;;;5109624;28;20138;-73
2024/03/03 10:24:20;;;;;;;;;;;;;;;;;;5092875;28;20459;-71
2024/03/03 10:26:46;;;;;;;16.75;8.30;;;;;;;;;;5093282;28;19915;-72
2024/03/03 10:29:16;;;;;;;17.13;8.73;;;;;;;;;;5092188;28;20030;-71
2024/03/03 10:31:43;;;;;;;20.15;9.45;;;;;;;;;;5110694;28;20494;-73
2024/03/03 10:34:11;;;;;;;15.65;8.77;;;;;;;;;;5110267;28;20100;-71
2024/03/03 10:36:37;;;;;;;16.33;7.80;;;;;;;;;;5110373;28;20094;-71
2024/03/03 10:39:02;;;;;;;17.90;8.82;;;;;;;;;;5092185;28;20529;-73
2024/03/03 10:41:28;;;;;;;15.45;9.10;;;;;;;;;;5092330;28;20451;-73
2024/03/03 10:43:55;;;;;;;14.75;8.52;;;;;;;;;;5111529;28;20472;-73
2024/03/03 10:46:21;;;;;;;18.63;10.35;;;;;;;;;;5112321;28;20024;-72
2024/03/03 10:48:47;;;;;;;20.05;10.13;;;;;;;;;;5093208;28;20030;-72
2024/03/03 10:51:19;;;;;;;20.15;9.38;;;;;;;;;;5094075;28;20483;-72
2024/03/03 10:53:50;;;;;;;17.70;9.15;;;;;;;;;;5111039;28;20055;-71
2024/03/03 10:56:18;;;;;;;20.50;8.95;;;;;;;;;;5112768;28;20483;-71
2024/03/03 10:58:46;;;;;;;17.92;9.00;;;;;;;;;;5113057;28;20168;-73
2024/03/03 11:01:14;;;;;;;16.58;8.57;;;;;;;;;;5113364;28;20027;-71
2024/03/03 11:03:42;;;;;;;15.98;8.48;;;;;;;;;;5090896;28;20044;-71
2024/03/03 11:06:09;;;;;;;15.55;9.05;;;;;;;;;;5090681;28;20458;-73
2024/03/03 11:08:36;;;;;;;17.88;9.13;;;;;;;;;;5091359;28;20096;-72
2024/03/03 11:11:07;;;;;;;17.70;8.27;;;;;;;;;;5091662;28;20463;-72
2024/03/03 11:13:39;;;;;;;16.63;8.73;;;;;;;;;;5091491;28;20091;-73
2024/03/03 11:16:05;;;;;;;;;;;;;;;;;;5089871;28;20063;-72
2024/03/03 11:18:35;;;;;;;18.02;8.68;;;;;;;;;;5091360;28;19939;-73
2024/03/03 11:21:08;;;;;;;16.85;8.80;;;;;;;;;;5090989;28;20141;-71
2024/03/03 11:23:43;;;;;;;17.25;8.93;;;;;;;;;;5089793;28;20052;-73
2024/03/03 11:26:35;;;;;;;17.25;8.90;;;;;;;;;;5088622;28;20066;-71
2024/03/03 11:29:03;;;;;;;17.95;8.85;;;;;;;;;;5088656;28;20028;-71
2024/03/03 11:31:29;;;;;;;17.33;9.63;;;;;;;;;;5090105;28;20507;-72
2024/03/03 11:33:59;;;;;;;18.75;10.02;;;;;;;;;;5090987;28;20480;-72
2024/03/03 11:36:26;;;;;;;16.80;9.13;;;;;;;;;;5094416;28;20024;-72
2024/03/03 11:38:56;;;;;;;18.83;9.13;;;;;;;;;;5097898;28;20028;-73
2024/03/03 11:41:21;;;;;;;17.00;9.60;;;;;;;;;;5096661;28;20016;-71
2024/03/03 11:43:48;;;;;;;20.38;9.23;;;;;;;;;;5093489;28;20375;-72
2024/03/03 11:46:48;;;;;;;16.30;9.40;;;;;;;;;;5092153;28;20026;-71
2024/03/03 11:49:16;;;;;;;17.75;9.02;;;;;;;;;;5092087;28;20436;-71
2024/03/03 11:51:41;;;;;;;18.70;9.43;;;;;;;;;;5075389;28;20411;-72
2024/03/03 11:54:07;;;;;;;20.65;10.52;;;;;;;;;;5091737;28;20110;-72
2024/03/03 11:56:45;;;;;;;18.98;10.02;;;;;;;;;;5093761;28;20312;-72
2024/03/03 11:59:11;;;;;;;21.33;9.70;;;;;;;;;;5095095;28;20030;-72
2024/03/03 12:01:40;;;;;;;16.13;9.38;;;;;;;;;;5095257;28;20503;-72
2024/03/03 12:04:05;;;;;;;15.43;8.65;;;;;;;;;;5101579;28;20121;-73
2024/03/03 12:06:31;;;;;;;18.73;9.40;;;;;;;;;;5113979;28;20451;-73
2024/03/03 12:09:03;;;;;;;21.83;9.27;;;;;;;;;;5095378;28;20035;-72
2024/03/03 12:11:30;;;;;;;18.15;8.52;;;;;;;;;;5113651;28;20055;-70
2024/03/03 12:13:59;;;;;;;17.92;8.70;;;;;;;;;;5113399;28;20340;-73
2024/03/03 12:16:24;;;;;;;15.25;8.13;;;;;;;;;;5094490;28;20084;-72
2024/03/03 12:18:50;;;;;;;17.67;8.63;;;;;;;;;;5094865;28;20032;-73
2024/03/03 12:21:19;;;;;;;17.23;9.10;;;;;;;;;;5094173;28;20361;-71
2024/03/03 12:23:45;;;;;;;17.23;8.57;;;;;;;;;;5113183;28;20085;-73
2024/03/03 12:26:12;;;;;;;15.95;9.00;;;;;;;;;;5112927;28;20375;-71
2024/03/03 12:28:39;;;;;;;15.35;9.13;;;;;;;;;;5113349;28;20023;-72
2024/03/03 12:31:04;;;;;;;18.73;9.60;;;;;;;;;;5094696;28;20155;-72
2024/03/03 12:33:29;;;;;;;16.30;9.60;;;;;;;;;;5113144;28;20028;-73
2024/03/03 12:35:56;;;;;;;17.10;9.10;;;;;;;;;;5094813;28;20053;-73
2024/03/03 12:38:21;;;;;;;18.00;9.18;;;;;;;;;;5095049;28;20042;-72
2024/03/03 12:40:48;;;;;;;20.42;9.30;;;;;;;;;;5094654;28;20483;-73
2024/03/03 12:43:14;;;;;;;17.88;9.40;;;;;;;;;;5094503;28;20092;-72
2024/03/03 12:45:46;;;;;;;18.70;9.45;;;;;;;;;;5076030;28;20027;-72
2024/03/03 12:48:12;;;;;;;;;;;;;;;;;;5094663;28;20110;-72
2024/03/03 12:50:38;;;;;;;17.23;8.85;;;;;;;;;;5094187;28;19991;-72
2024/03/03 12:53:04;;;;;;;17.80;9.50;;;;;;;;;;5112625;28;20493;-71
2024/03/03 12:55:30;;;;;;;17.02;8.93;;;;;;;;;;5093933;28;20544;-73
2024/03/03 12:57:57;;;;;;;18.52;8.85;;;;;;;;;;5094463;28;20130;-72
2024/03/03 13:00:24;;;;;;;15.13;9.38;;;;;;;;;;5112116;28;20024;-73
2024/03/03 13:02:50;;;;;;;18.92;9.93;;;;;;;;;;5093816;28;20445;-71
2024/03/03 13:05:16;;;;;;;15.55;8.57;;;;;;;;;;5076554;28;20048;-72
2024/03/03 13:07:50;;;;;;;18.40;9.15;;;;;;;;;;5112242;28;20027;-72
2024/03/03 13:10:17;;;;;;;17.55;10.23;;;;;;;;;;5093978;28;20035;-72
2024/03/03 13:12:55;;;;;;;19.73;8.70;;;;;;;;;;5112676;28;20027;-71
2024/03/03 13:15:23;;;;;;;17.73;8.90;;;;;;;;;;5093675;28;20030;-73
2024/03/03 13:18:17;;;;;;;16.58;8.75;;;;;;;;;;5094058;28;20378;-72
2024/03/03 13:20:43;;;;;;;16.38;9.02;;;;;;;;;;5094210;28;20115;-72
2024/03/03 13:23:19;;;;;;;17.33;8.18;;;;;;;;;;5094105;28;20084;-71
2024/03/03 13:25:46;;;;;;;15.27;8.52;;;;;;;;;;5093759;28;20107;-73
2024/03/03 13:28:16;;;;;;;15.30;8.13;;;;;;;;;;5076449;28;20427;-73
2024/03/03 13:31:03;;;;;;;16.23;8.32;;;;;;;;;;5112202;28;20031;-71
2024/03/03 13:33:36;;;;;;;15.43;8.35;;;;;;;;;;5093374;28;20028;-73
2024/03/03 13:36:08;;;;;;;16.63;8.05;;;;;;;;;;5076996;28;20209;-73
2024/03/03 13:38:34;;;;;;;14.40;7.80;;;;;;;;;;5112109;28;20028;-73
2024/03/03 13:41:00;;;;;;;12.98;7.82;;;;;;;;;;5093625;28;20035;-72
2024/03/03 13:43:25;;;;;;;14.32;7.90;;;;;;;;;;5093642;28;20333;-73
2024/03/03 13:45:51;;;;;;;90.15;40.33;;;;;;;;;;5112110;28;20027;-72
2024/03/03 13:48:17;;;;;;;17.33;8.68;;;;;;;;;;5112983;28;20019;-72
2024/03/03 13:50:43;;;;;;;16.45;8.43;;;;;;;;;;5111945;28;20034;-71
2024/03/03 13:53:13;;;;;;;15.10;8.63;;;;;;;;;;5093103;28;20114;-71
2024/03/03 13:55:39;;;;;;;16.95;8.45;;;;;;;;;;5111034;28;20414;-70
2024/03/03 13:58:04;;;;;;;18.42;9.07;;;;;;;;;;5093395;28;20084;-73
2024/03/03 14:00:30;;;;;;;17.90;8.13;;;;;;;;;;5111459;28;20047;-72
2024/03/03 14:02:57;;;;;;;16.55;8.98;;;;;;;;;;5111492;28;20020;-73
2024/03/03 14:05:23;;;;;;;15.93;8.95;;;;;;;;;;5089181;28;20047;-71
2024/03/03 14:07:49;;;;;;;17.70;8.77;;;;;;;;;;5089555;28;20541;-71
2024/03/03 14:10:15;;;;;;;14.50;7.90;;;;;;;;;;5090575;28;20027;-71
2024/03/03 14:12:40;;;;;;;12.82;7.82;;;;;;;;;;5090774;28;20028;-72
2024/03/03 14:15:07;;;;;;;15.55;8.07;;;;;;;;;;5091673;28;20061;-72
2024/03/03 14:17:33;;;;;;;13.93;7.63;;;;;;;;;;5089765;28;20028;-72
2024/03/03 14:19:58;;;;;;;11.70;7.65;;;;;;;;;;5089401;28;20428;-73
2024/03/03 14:22:25;;;;;;;14.90;8.13;;;;;;;;;;5089112;28;20131;-74